sensor_id;sensor_type;location;lat;lon;timestamp;P1;durP1;ratioP1;P2;durP2;ratioP2
8592;SDS011;4334;49.982;8.398;2023-03-25T00:00:49;1.57;;;1.30;;
8592;SDS011;4334;49.982;8.398;2023-03-25T00:03:18;2.60;;;0.80;;
8592;SDS011;4334;49.982;8.398;2023-03-25T00:05:48;0.60;;;0.60;;
8592;SDS011;4334;49.982;8.398;2023-03-25T00:08:16;3.80;;;1.00;;
8592;SDS011;4334;49.982;8.398;2023-03-25T00:10:45;1.40;;;1.30;;
8592;SDS011;4334;49.982;8.398;2023-03-25T00:13:18;1.00;;;0.83;;
8592;SDS011;4334;49.982;8.398;2023-03-25T00:15:46;1.23;;;0.90;;
8592;SDS011;4334;49.982;8.398;2023-03-25T00:18:18;2.20;;;1.40;;
8592;SDS011;4334;49.982;8.398;2023-03-25T00:20:48;3.63;;;1.50;;
8592;SDS011;4334;49.982;8.398;2023-03-25T00:23:16;3.00;;;1.30;;
8592;SDS011;4334;49.982;8.398;2023-03-25T00:25:46;3.30;;;1.40;;
8592;SDS011;4334;49.982;8.398;2023-03-25T00:28:14;3.37;;;1.50;;
8592;SDS011;4334;49.982;8.398;2023-03-25T00:30:42;3.63;;;1.53;;
8592;SDS011;4334;49.982;8.398;2023-03-25T00:33:11;2.70;;;1.30;;
8592;SDS011;4334;49.982;8.398;2023-03-25T00:35:39;2.27;;;1.20;;
8592;SDS011;4334;49.982;8.398;2023-03-25T00:38:09;2.57;;;1.07;;
8592;SDS011;4334;49.982;8.398;2023-03-25T00:40:36;1.50;;;0.90;;
8592;SDS011;4334;49.982;8.398;2023-03-25T00:43:06;3.13;;;1.17;;
8592;SDS011;4334;49.982;8.398;2023-03-25T00:45:33;1.07;;;0.97;;
8592;SDS011;4334;49.982;8.398;2023-03-25T00:48:00;1.50;;;0.87;;
8592;SDS011;4334;49.982;8.398;2023-03-25T00:50:28;2.50;;;1.00;;
8592;SDS011;4334;49.982;8.398;2023-03-25T00:52:55;3.43;;;0.90;;
8592;SDS011;4334;49.982;8.398;2023-03-25T00:55:26;2.27;;;0.90;;
8592;SDS011;4334;49.982;8.398;2023-03-25T00:57:54;1.07;;;0.87;;
8592;SDS011;4334;49.982;8.398;2023-03-25T01:00:23;2.53;;;0.83;;
8592;SDS011;4334;49.982;8.398;2023-03-25T01:02:51;1.40;;;0.97;;
8592;SDS011;4334;49.982;8.398;2023-03-25T01:05:19;1.53;;;1.03;;
8592;SDS011;4334;49.982;8.398;2023-03-25T01:07:49;3.30;;;0.90;;
8592;SDS011;4334;49.982;8.398;2023-03-25T01:10:17;1.87;;;0.90;;
8592;SDS011;4334;49.982;8.398;2023-03-25T01:12:44;2.03;;;1.03;;
8592;SDS011;4334;49.982;8.398;2023-03-25T01:15:11;1.83;;;0.93;;
8592;SDS011;4334;49.982;8.398;2023-03-25T01:17:40;2.30;;;1.37;;
8592;SDS011;4334;49.982;8.398;2023-03-25T01:20:07;3.27;;;1.10;;
8592;SDS011;4334;49.982;8.398;2023-03-25T01:22:35;2.23;;;1.30;;
8592;SDS011;4334;49.982;8.398;2023-03-25T01:25:02;2.63;;;1.20;;
8592;SDS011;4334;49.982;8.398;2023-03-25T01:27:31;5.50;;;1.90;;
8592;SDS011;4334;49.982;8.398;2023-03-25T01:29:58;13.73;;;5.23;;
8592;SDS011;4334;49.982;8.398;2023-03-25T01:32:27;6.70;;;3.57;;
8592;SDS011;4334;49.982;8.398;2023-03-25T01:34:56;10.53;;;5.30;;
8592;SDS011;4334;49.982;8.398;2023-03-25T01:37:24;7.40;;;3.97;;
8592;SDS011;4334;49.982;8.398;2023-03-25T01:39:53;11.97;;;4.87;;
8592;SDS011;4334;49.982;8.398;2023-03-25T01:42:21;12.73;;;5.17;;
8592;SDS011;4334;49.982;8.398;2023-03-25T01:47:57;15.87;;;8.53;;
8592;SDS011;4334;49.982;8.398;2023-03-25T01:50:33;9.97;;;4.53;;
8592;SDS011;4334;49.982;8.398;2023-03-25T01:53:03;12.00;;;5.20;;
8592;SDS011;4334;49.982;8.398;2023-03-25T01:55:33;5.60;;;2.83;;
8592;SDS011;4334;49.982;8.398;2023-03-25T01:58:02;7.73;;;3.63;;
8592;SDS011;4334;49.982;8.398;2023-03-25T02:00:34;10.13;;;4.73;;
8592;SDS011;4334;49.982;8.398;2023-03-25T02:03:04;12.40;;;5.30;;
8592;SDS011;4334;49.982;8.398;2023-03-25T02:05:35;7.40;;;4.10;;
8592;SDS011;4334;49.982;8.398;2023-03-25T02:08:07;8.97;;;4.03;;
8592;SDS011;4334;49.982;8.398;2023-03-25T02:10:35;12.80;;;5.93;;
8592;SDS011;4334;49.982;8.398;2023-03-25T02:13:04;12.40;;;4.50;;
8592;SDS011;4334;49.982;8.398;2023-03-25T02:15:36;9.23;;;3.80;;
8592;SDS011;4334;49.982;8.398;2023-03-25T02:18:11;10.27;;;3.50;;
8592;SDS011;4334;49.982;8.398;2023-03-25T02:24:01;4.10;;;2.30;;
8592;SDS011;4334;49.982;8.398;2023-03-25T02:27:03;4.03;;;2.27;;
8592;SDS011;4334;49.982;8.398;2023-03-25T02:29:53;3.43;;;1.90;;
8592;SDS011;4334;49.982;8.398;2023-03-25T02:32:37;3.87;;;1.87;;
8592;SDS011;4334;49.982;8.398;2023-03-25T02:35:27;3.93;;;2.53;;
8592;SDS011;4334;49.982;8.398;2023-03-25T02:38:15;7.13;;;3.90;;
8592;SDS011;4334;49.982;8.398;2023-03-25T02:40:52;7.90;;;3.50;;
8592;SDS011;4334;49.982;8.398;2023-03-25T02:43:23;5.33;;;2.60;;
8592;SDS011;4334;49.982;8.398;2023-03-25T02:45:58;5.03;;;2.13;;
8592;SDS011;4334;49.982;8.398;2023-03-25T02:48:28;4.47;;;2.13;;
8592;SDS011;4334;49.982;8.398;2023-03-25T02:51:03;12.87;;;6.33;;
8592;SDS011;4334;49.982;8.398;2023-03-25T02:53:36;6.10;;;2.87;;
8592;SDS011;4334;49.982;8.398;2023-03-25T02:56:08;5.20;;;2.47;;
8592;SDS011;4334;49.982;8.398;2023-03-25T02:58:39;6.40;;;2.57;;
8592;SDS011;4334;49.982;8.398;2023-03-25T03:01:07;7.33;;;3.80;;
8592;SDS011;4334;49.982;8.398;2023-03-25T03:03:34;5.53;;;2.07;;
8592;SDS011;4334;49.982;8.398;2023-03-25T03:06:02;6.47;;;3.40;;
8592;SDS011;4334;49.982;8.398;2023-03-25T03:08:40;4.10;;;1.97;;
8592;SDS011;4334;49.982;8.398;2023-03-25T03:11:18;7.83;;;3.70;;
8592;SDS011;4334;49.982;8.398;2023-03-25T03:13:52;5.10;;;2.40;;
8592;SDS011;4334;49.982;8.398;2023-03-25T03:16:39;3.90;;;1.23;;
8592;SDS011;4334;49.982;8.398;2023-03-25T03:19:18;1.90;;;1.20;;
8592;SDS011;4334;49.982;8.398;2023-03-25T03:21:59;1.90;;;1.07;;
8592;SDS011;4334;49.982;8.398;2023-03-25T03:24:35;1.47;;;1.10;;
8592;SDS011;4334;49.982;8.398;2023-03-25T03:27:05;2.17;;;1.20;;
8592;SDS011;4334;49.982;8.398;2023-03-25T03:29:41;3.80;;;1.67;;
8592;SDS011;4334;49.982;8.398;2023-03-25T03:32:12;1.37;;;1.03;;
8592;SDS011;4334;49.982;8.398;2023-03-25T03:34:45;1.30;;;1.20;;
8592;SDS011;4334;49.982;8.398;2023-03-25T03:37:15;2.53;;;1.10;;
8592;SDS011;4334;49.982;8.398;2023-03-25T03:39:49;2.23;;;1.20;;
8592;SDS011;4334;49.982;8.398;2023-03-25T03:42:21;2.77;;;1.30;;
8592;SDS011;4334;49.982;8.398;2023-03-25T03:44:55;4.67;;;1.30;;
8592;SDS011;4334;49.982;8.398;2023-03-25T03:47:27;3.13;;;1.30;;
8592;SDS011;4334;49.982;8.398;2023-03-25T03:49:57;2.70;;;1.30;;
8592;SDS011;4334;49.982;8.398;2023-03-25T03:52:29;2.33;;;1.13;;
8592;SDS011;4334;49.982;8.398;2023-03-25T03:55:03;2.53;;;1.43;;
8592;SDS011;4334;49.982;8.398;2023-03-25T03:57:39;2.60;;;1.30;;
8592;SDS011;4334;49.982;8.398;2023-03-25T04:00:11;3.00;;;1.30;;
8592;SDS011;4334;49.982;8.398;2023-03-25T04:02:43;2.40;;;1.23;;
8592;SDS011;4334;49.982;8.398;2023-03-25T04:05:15;2.90;;;1.40;;
8592;SDS011;4334;49.982;8.398;2023-03-25T04:07:46;4.57;;;1.30;;
8592;SDS011;4334;49.982;8.398;2023-03-25T04:10:22;3.53;;;1.50;;
8592;SDS011;4334;49.982;8.398;2023-03-25T04:12:54;2.70;;;1.50;;
8592;SDS011;4334;49.982;8.398;2023-03-25T04:15:24;3.77;;;1.30;;
8592;SDS011;4334;49.982;8.398;2023-03-25T04:17:52;2.70;;;1.50;;
8592;SDS011;4334;49.982;8.398;2023-03-25T04:20:20;3.27;;;1.53;;
8592;SDS011;4334;49.982;8.398;2023-03-25T04:22:50;3.07;;;1.30;;
8592;SDS011;4334;49.982;8.398;2023-03-25T04:25:18;3.17;;;1.47;;
8592;SDS011;4334;49.982;8.398;2023-03-25T04:27:51;1.73;;;1.47;;
8592;SDS011;4334;49.982;8.398;2023-03-25T04:30:23;3.37;;;1.40;;
8592;SDS011;4334;49.982;8.398;2023-03-25T04:32:51;2.97;;;1.50;;
8592;SDS011;4334;49.982;8.398;2023-03-25T04:35:19;2.93;;;1.60;;
8592;SDS011;4334;49.982;8.398;2023-03-25T04:37:49;4.90;;;1.93;;
8592;SDS011;4334;49.982;8.398;2023-03-25T04:40:19;4.93;;;2.30;;
8592;SDS011;4334;49.982;8.398;2023-03-25T04:42:49;4.97;;;2.47;;
8592;SDS011;4334;49.982;8.398;2023-03-25T04:45:21;14.60;;;5.60;;
8592;SDS011;4334;49.982;8.398;2023-03-25T04:47:49;10.67;;;3.70;;
8592;SDS011;4334;49.982;8.398;2023-03-25T04:50:20;17.87;;;6.97;;
8592;SDS011;4334;49.982;8.398;2023-03-25T04:52:50;4.93;;;2.47;;
8592;SDS011;4334;49.982;8.398;2023-03-25T04:55:18;4.80;;;2.33;;
8592;SDS011;4334;49.982;8.398;2023-03-25T04:57:50;3.87;;;2.20;;
8592;SDS011;4334;49.982;8.398;2023-03-25T05:00:20;5.90;;;2.70;;
8592;SDS011;4334;49.982;8.398;2023-03-25T05:02:50;5.97;;;2.43;;
8592;SDS011;4334;49.982;8.398;2023-03-25T05:05:19;5.00;;;2.63;;
8592;SDS011;4334;49.982;8.398;2023-03-25T05:07:49;2.27;;;1.60;;
8592;SDS011;4334;49.982;8.398;2023-03-25T05:10:18;4.40;;;2.07;;
8592;SDS011;4334;49.982;8.398;2023-03-25T05:12:58;3.10;;;1.70;;
8592;SDS011;4334;49.982;8.398;2023-03-25T05:15:27;5.63;;;1.60;;
8592;SDS011;4334;49.982;8.398;2023-03-25T05:17:57;3.87;;;1.80;;
8592;SDS011;4334;49.982;8.398;2023-03-25T05:20:27;3.47;;;1.90;;
8592;SDS011;4334;49.982;8.398;2023-03-25T05:22:55;4.07;;;1.80;;
8592;SDS011;4334;49.982;8.398;2023-03-25T05:25:22;3.93;;;1.70;;
8592;SDS011;4334;49.982;8.398;2023-03-25T05:27:50;3.77;;;1.70;;
8592;SDS011;4334;49.982;8.398;2023-03-25T05:30:20;2.50;;;1.70;;
8592;SDS011;4334;49.982;8.398;2023-03-25T05:32:56;3.30;;;1.80;;
8592;SDS011;4334;49.982;8.398;2023-03-25T05:35:24;5.43;;;2.10;;
8592;SDS011;4334;49.982;8.398;2023-03-25T05:37:52;4.50;;;2.20;;
8592;SDS011;4334;49.982;8.398;2023-03-25T05:40:22;4.73;;;1.80;;
8592;SDS011;4334;49.982;8.398;2023-03-25T05:42:50;3.00;;;1.90;;
8592;SDS011;4334;49.982;8.398;2023-03-25T05:45:22;6.00;;;1.90;;
8592;SDS011;4334;49.982;8.398;2023-03-25T05:47:50;4.07;;;2.00;;
8592;SDS011;4334;49.982;8.398;2023-03-25T05:50:18;5.47;;;2.20;;
8592;SDS011;4334;49.982;8.398;2023-03-25T05:52:47;3.93;;;2.00;;
8592;SDS011;4334;49.982;8.398;2023-03-25T05:55:16;3.07;;;1.83;;
8592;SDS011;4334;49.982;8.398;2023-03-25T05:57:44;4.83;;;1.77;;
8592;SDS011;4334;49.982;8.398;2023-03-25T06:00:12;3.03;;;1.80;;
8592;SDS011;4334;49.982;8.398;2023-03-25T06:02:44;3.37;;;2.00;;
8592;SDS011;4334;49.982;8.398;2023-03-25T06:05:13;2.80;;;1.77;;
8592;SDS011;4334;49.982;8.398;2023-03-25T06:07:41;2.57;;;1.60;;
8592;SDS011;4334;49.982;8.398;2023-03-25T06:10:10;5.33;;;1.67;;
8592;SDS011;4334;49.982;8.398;2023-03-25T06:12:42;2.27;;;1.30;;
8592;SDS011;4334;49.982;8.398;2023-03-25T06:15:11;4.53;;;1.50;;
8592;SDS011;4334;49.982;8.398;2023-03-25T06:17:40;3.33;;;1.47;;
8592;SDS011;4334;49.982;8.398;2023-03-25T06:20:13;3.03;;;1.70;;
8592;SDS011;4334;49.982;8.398;2023-03-25T06:22:44;2.80;;;1.70;;
8592;SDS011;4334;49.982;8.398;2023-03-25T06:25:12;5.97;;;2.57;;
8592;SDS011;4334;49.982;8.398;2023-03-25T06:27:41;4.43;;;3.20;;
8592;SDS011;4334;49.982;8.398;2023-03-25T06:30:09;4.47;;;2.00;;
8592;SDS011;4334;49.982;8.398;2023-03-25T06:32:38;4.53;;;1.80;;
8592;SDS011;4334;49.982;8.398;2023-03-25T06:35:06;4.97;;;1.77;;
8592;SDS011;4334;49.982;8.398;2023-03-25T06:37:36;5.77;;;1.87;;
8592;SDS011;4334;49.982;8.398;2023-03-25T06:40:05;3.83;;;2.10;;
8592;SDS011;4334;49.982;8.398;2023-03-25T06:42:33;4.77;;;1.97;;
8592;SDS011;4334;49.982;8.398;2023-03-25T06:45:02;3.80;;;1.70;;
8592;SDS011;4334;49.982;8.398;2023-03-25T06:47:29;3.77;;;1.70;;
8592;SDS011;4334;49.982;8.398;2023-03-25T06:49:57;5.07;;;2.13;;
8592;SDS011;4334;49.982;8.398;2023-03-25T06:52:24;3.87;;;1.60;;
8592;SDS011;4334;49.982;8.398;2023-03-25T06:54:53;4.67;;;1.97;;
8592;SDS011;4334;49.982;8.398;2023-03-25T06:57:21;5.23;;;2.10;;
8592;SDS011;4334;49.982;8.398;2023-03-25T06:59:48;3.07;;;1.73;;
8592;SDS011;4334;49.982;8.398;2023-03-25T07:02:16;6.07;;;1.97;;
8592;SDS011;4334;49.982;8.398;2023-03-25T07:04:43;6.43;;;2.00;;
8592;SDS011;4334;49.982;8.398;2023-03-25T07:07:10;3.17;;;1.70;;
8592;SDS011;4334;49.982;8.398;2023-03-25T07:09:37;4.50;;;2.00;;
8592;SDS011;4334;49.982;8.398;2023-03-25T07:12:07;5.17;;;1.70;;
8592;SDS011;4334;49.982;8.398;2023-03-25T07:14:34;6.53;;;1.60;;
8592;SDS011;4334;49.982;8.398;2023-03-25T07:17:01;5.47;;;1.60;;
8592;SDS011;4334;49.982;8.398;2023-03-25T07:19:29;2.80;;;1.43;;
8592;SDS011;4334;49.982;8.398;2023-03-25T07:21:57;5.73;;;1.63;;
8592;SDS011;4334;49.982;8.398;2023-03-25T07:24:25;6.57;;;1.60;;
8592;SDS011;4334;49.982;8.398;2023-03-25T07:26:52;7.00;;;1.70;;
8592;SDS011;4334;49.982;8.398;2023-03-25T07:29:21;5.47;;;2.00;;
8592;SDS011;4334;49.982;8.398;2023-03-25T07:31:53;5.70;;;2.03;;
8592;SDS011;4334;49.982;8.398;2023-03-25T07:34:24;10.57;;;3.53;;
8592;SDS011;4334;49.982;8.398;2023-03-25T07:36:52;7.57;;;2.97;;
8592;SDS011;4334;49.982;8.398;2023-03-25T07:39:19;16.00;;;7.43;;
8592;SDS011;4334;49.982;8.398;2023-03-25T07:41:51;9.60;;;4.03;;
8592;SDS011;4334;49.982;8.398;2023-03-25T07:44:20;5.10;;;1.73;;
8592;SDS011;4334;49.982;8.398;2023-03-25T07:46:48;4.30;;;1.93;;
8592;SDS011;4334;49.982;8.398;2023-03-25T07:49:16;2.77;;;1.63;;
8592;SDS011;4334;49.982;8.398;2023-03-25T07:51:48;6.83;;;1.77;;
8592;SDS011;4334;49.982;8.398;2023-03-25T07:54:16;7.67;;;2.63;;
8592;SDS011;4334;49.982;8.398;2023-03-25T07:56:46;7.07;;;2.47;;
8592;SDS011;4334;49.982;8.398;2023-03-25T07:59:14;6.67;;;2.23;;
8592;SDS011;4334;49.982;8.398;2023-03-25T08:01:43;7.10;;;2.37;;
8592;SDS011;4334;49.982;8.398;2023-03-25T08:04:11;9.47;;;2.80;;
8592;SDS011;4334;49.982;8.398;2023-03-25T08:06:38;7.23;;;2.23;;
8592;SDS011;4334;49.982;8.398;2023-03-25T08:09:06;11.33;;;2.67;;
8592;SDS011;4334;49.982;8.398;2023-03-25T08:11:33;8.40;;;2.40;;
8592;SDS011;4334;49.982;8.398;2023-03-25T08:14:00;8.83;;;2.20;;
8592;SDS011;4334;49.982;8.398;2023-03-25T08:16:28;12.50;;;2.70;;
8592;SDS011;4334;49.982;8.398;2023-03-25T08:18:56;8.77;;;2.47;;
8592;SDS011;4334;49.982;8.398;2023-03-25T08:21:24;12.00;;;2.17;;
8592;SDS011;4334;49.982;8.398;2023-03-25T08:23:52;10.97;;;2.40;;
8592;SDS011;4334;49.982;8.398;2023-03-25T08:26:22;8.90;;;2.00;;
8592;SDS011;4334;49.982;8.398;2023-03-25T08:28:51;6.80;;;2.20;;
8592;SDS011;4334;49.982;8.398;2023-03-25T08:31:22;7.07;;;2.00;;
8592;SDS011;4334;49.982;8.398;2023-03-25T08:33:49;13.17;;;2.57;;
8592;SDS011;4334;49.982;8.398;2023-03-25T08:36:18;7.87;;;2.37;;
8592;SDS011;4334;49.982;8.398;2023-03-25T08:38:48;6.57;;;2.10;;
8592;SDS011;4334;49.982;8.398;2023-03-25T08:41:16;8.57;;;2.17;;
8592;SDS011;4334;49.982;8.398;2023-03-25T08:43:44;7.47;;;2.40;;
8592;SDS011;4334;49.982;8.398;2023-03-25T08:46:12;7.40;;;2.27;;
8592;SDS011;4334;49.982;8.398;2023-03-25T08:48:39;9.13;;;2.27;;
8592;SDS011;4334;49.982;8.398;2023-03-25T08:51:08;5.50;;;1.90;;
8592;SDS011;4334;49.982;8.398;2023-03-25T08:53:36;8.23;;;2.37;;
8592;SDS011;4334;49.982;8.398;2023-03-25T08:56:04;5.73;;;2.20;;
8592;SDS011;4334;49.982;8.398;2023-03-25T08:58:32;4.57;;;1.60;;
8592;SDS011;4334;49.982;8.398;2023-03-25T09:01:00;4.60;;;1.83;;
8592;SDS011;4334;49.982;8.398;2023-03-25T09:03:29;8.47;;;2.00;;
8592;SDS011;4334;49.982;8.398;2023-03-25T09:05:57;7.83;;;2.23;;
8592;SDS011;4334;49.982;8.398;2023-03-25T09:08:28;8.20;;;2.40;;
8592;SDS011;4334;49.982;8.398;2023-03-25T09:10:59;11.07;;;2.83;;
8592;SDS011;4334;49.982;8.398;2023-03-25T09:13:26;6.37;;;2.10;;
8592;SDS011;4334;49.982;8.398;2023-03-25T09:15:54;10.20;;;2.17;;
8592;SDS011;4334;49.982;8.398;2023-03-25T09:18:27;7.60;;;2.33;;
8592;SDS011;4334;49.982;8.398;2023-03-25T09:20:57;6.53;;;2.00;;
8592;SDS011;4334;49.982;8.398;2023-03-25T09:23:25;7.47;;;2.20;;
8592;SDS011;4334;49.982;8.398;2023-03-25T09:25:58;9.03;;;2.00;;
8592;SDS011;4334;49.982;8.398;2023-03-25T09:28:28;7.83;;;2.40;;
8592;SDS011;4334;49.982;8.398;2023-03-25T09:30:56;5.57;;;2.10;;
8592;SDS011;4334;49.982;8.398;2023-03-25T09:33:24;8.77;;;1.90;;
8592;SDS011;4334;49.982;8.398;2023-03-25T09:35:52;6.93;;;2.20;;
8592;SDS011;4334;49.982;8.398;2023-03-25T09:38:19;9.27;;;2.00;;
8592;SDS011;4334;49.982;8.398;2023-03-25T09:40:48;9.77;;;2.00;;
8592;SDS011;4334;49.982;8.398;2023-03-25T09:43:23;7.03;;;1.80;;
8592;SDS011;4334;49.982;8.398;2023-03-25T09:46:02;1.47;;;0.63;;
8592;SDS011;4334;49.982;8.398;2023-03-25T09:48:32;0.70;;;0.53;;
8592;SDS011;4334;49.982;8.398;2023-03-25T09:51:09;2.83;;;0.83;;
8592;SDS011;4334;49.982;8.398;2023-03-25T09:53:41;4.07;;;0.90;;
8592;SDS011;4334;49.982;8.398;2023-03-25T09:56:13;4.83;;;0.97;;
8592;SDS011;4334;49.982;8.398;2023-03-25T09:58:45;4.87;;;1.30;;
8592;SDS011;4334;49.982;8.398;2023-03-25T10:01:20;2.70;;;1.00;;
8592;SDS011;4334;49.982;8.398;2023-03-25T10:06:55;3.83;;;1.00;;
8592;SDS011;4334;49.982;8.398;2023-03-25T10:09:35;2.60;;;1.10;;
8592;SDS011;4334;49.982;8.398;2023-03-25T10:12:11;1.50;;;0.90;;
8592;SDS011;4334;49.982;8.398;2023-03-25T10:14:55;2.53;;;0.87;;
8592;SDS011;4334;49.982;8.398;2023-03-25T10:17:31;4.93;;;0.80;;
8592;SDS011;4334;49.982;8.398;2023-03-25T10:20:04;3.30;;;1.03;;
8592;SDS011;4334;49.982;8.398;2023-03-25T10:22:38;2.47;;;1.00;;
8592;SDS011;4334;49.982;8.398;2023-03-25T10:25:19;1.57;;;0.80;;
8592;SDS011;4334;49.982;8.398;2023-03-25T10:27:50;1.03;;;0.70;;
8592;SDS011;4334;49.982;8.398;2023-03-25T10:30:23;2.23;;;0.70;;
8592;SDS011;4334;49.982;8.398;2023-03-25T10:32:55;1.93;;;0.70;;
8592;SDS011;4334;49.982;8.398;2023-03-25T10:35:24;3.07;;;1.00;;
8592;SDS011;4334;49.982;8.398;2023-03-25T10:37:56;2.10;;;1.10;;
8592;SDS011;4334;49.982;8.398;2023-03-25T10:40:25;2.30;;;0.97;;
8592;SDS011;4334;49.982;8.398;2023-03-25T10:43:04;2.17;;;1.20;;
8592;SDS011;4334;49.982;8.398;2023-03-25T10:45:42;2.50;;;1.00;;
8592;SDS011;4334;49.982;8.398;2023-03-25T10:48:14;2.17;;;1.13;;
8592;SDS011;4334;49.982;8.398;2023-03-25T10:50:46;2.90;;;1.30;;
8592;SDS011;4334;49.982;8.398;2023-03-25T10:53:18;4.87;;;1.60;;
8592;SDS011;4334;49.982;8.398;2023-03-25T10:55:50;4.07;;;1.43;;
8592;SDS011;4334;49.982;8.398;2023-03-25T10:58:24;3.03;;;1.30;;
8592;SDS011;4334;49.982;8.398;2023-03-25T11:00:53;4.03;;;1.17;;
8592;SDS011;4334;49.982;8.398;2023-03-25T11:03:22;4.10;;;1.37;;
8592;SDS011;4334;49.982;8.398;2023-03-25T11:05:54;3.33;;;1.30;;
8592;SDS011;4334;49.982;8.398;2023-03-25T11:08:23;3.17;;;1.10;;
8592;SDS011;4334;49.982;8.398;2023-03-25T11:10:51;4.50;;;1.30;;
8592;SDS011;4334;49.982;8.398;2023-03-25T11:13:24;3.07;;;1.30;;
8592;SDS011;4334;49.982;8.398;2023-03-25T11:15:56;4.60;;;1.30;;
8592;SDS011;4334;49.982;8.398;2023-03-25T11:18:27;3.63;;;1.43;;
8592;SDS011;4334;49.982;8.398;2023-03-25T11:21:00;4.27;;;1.53;;
8592;SDS011;4334;49.982;8.398;2023-03-25T11:23:31;2.77;;;1.00;;
8592;SDS011;4334;49.982;8.398;2023-03-25T11:26:01;2.30;;;1.30;;
8592;SDS011;4334;49.982;8.398;2023-03-25T11:28:34;3.03;;;1.30;;
8592;SDS011;4334;49.982;8.398;2023-03-25T11:34:02;3.00;;;1.20;;
8592;SDS011;4334;49.982;8.398;2023-03-25T11:36:31;3.50;;;1.33;;
8592;SDS011;4334;49.982;8.398;2023-03-25T11:39:02;1.97;;;1.00;;
8592;SDS011;4334;49.982;8.398;2023-03-25T11:41:40;3.10;;;1.40;;
8592;SDS011;4334;49.982;8.398;2023-03-25T11:44:14;1.47;;;1.13;;
8592;SDS011;4334;49.982;8.398;2023-03-25T11:46:50;2.63;;;1.20;;
8592;SDS011;4334;49.982;8.398;2023-03-25T11:49:22;5.57;;;1.30;;
8592;SDS011;4334;49.982;8.398;2023-03-25T11:51:55;2.30;;;1.30;;
8592;SDS011;4334;49.982;8.398;2023-03-25T11:54:26;3.07;;;1.20;;
8592;SDS011;4334;49.982;8.398;2023-03-25T11:56:54;3.53;;;1.50;;
8592;SDS011;4334;49.982;8.398;2023-03-25T11:59:23;3.43;;;1.30;;
8592;SDS011;4334;49.982;8.398;2023-03-25T12:02:00;3.40;;;1.30;;
8592;SDS011;4334;49.982;8.398;2023-03-25T12:04:29;2.63;;;1.27;;
8592;SDS011;4334;49.982;8.398;2023-03-25T12:06:57;2.13;;;1.20;;
8592;SDS011;4334;49.982;8.398;2023-03-25T12:09:27;2.70;;;1.20;;
8592;SDS011;4334;49.982;8.398;2023-03-25T12:12:02;2.15;;;1.27;;
8592;SDS011;4334;49.982;8.398;2023-03-25T12:14:50;2.83;;;1.40;;
8592;SDS011;4334;49.982;8.398;2023-03-25T12:17:37;2.63;;;1.10;;
8592;SDS011;4334;49.982;8.398;2023-03-25T12:20:15;2.92;;;1.27;;
8592;SDS011;4334;49.982;8.398;2023-03-25T12:22:54;2.28;;;0.90;;
8592;SDS011;4334;49.982;8.398;2023-03-25T12:25:37;2.70;;;1.30;;
8592;SDS011;4334;49.982;8.398;2023-03-25T12:31:17;1.30;;;0.87;;
8592;SDS011;4334;49.982;8.398;2023-03-25T12:33:57;3.00;;;1.07;;
8592;SDS011;4334;49.982;8.398;2023-03-25T12:36:38;1.80;;;0.90;;
8592;SDS011;4334;49.982;8.398;2023-03-25T12:39:17;2.83;;;1.23;;
8592;SDS011;4334;49.982;8.398;2023-03-25T12:42:00;4.27;;;1.23;;
8592;SDS011;4334;49.982;8.398;2023-03-25T12:44:42;2.00;;;1.20;;
8592;SDS011;4334;49.982;8.398;2023-03-25T12:47:22;2.80;;;1.10;;
8592;SDS011;4334;49.982;8.398;2023-03-25T12:50:08;4.50;;;1.37;;
8592;SDS011;4334;49.982;8.398;2023-03-25T12:52:49;3.77;;;1.13;;
8592;SDS011;4334;49.982;8.398;2023-03-25T12:55:31;3.53;;;1.23;;
8592;SDS011;4334;49.982;8.398;2023-03-25T12:58:18;3.00;;;1.20;;
8592;SDS011;4334;49.982;8.398;2023-03-25T13:01:14;3.83;;;1.23;;
8592;SDS011;4334;49.982;8.398;2023-03-25T13:03:55;1.40;;;0.93;;
8592;SDS011;4334;49.982;8.398;2023-03-25T13:06:34;3.07;;;0.87;;
8592;SDS011;4334;49.982;8.398;2023-03-25T13:09:11;2.70;;;1.03;;
8592;SDS011;4334;49.982;8.398;2023-03-25T13:11:44;1.73;;;0.93;;
8592;SDS011;4334;49.982;8.398;2023-03-25T13:14:16;3.07;;;1.10;;
8592;SDS011;4334;49.982;8.398;2023-03-25T13:16:53;2.53;;;1.20;;
8592;SDS011;4334;49.982;8.398;2023-03-25T13:19:26;3.70;;;1.30;;
8592;SDS011;4334;49.982;8.398;2023-03-25T13:22:02;3.63;;;1.33;;
8592;SDS011;4334;49.982;8.398;2023-03-25T13:24:35;4.47;;;1.10;;
8592;SDS011;4334;49.982;8.398;2023-03-25T13:27:09;3.07;;;1.20;;
8592;SDS011;4334;49.982;8.398;2023-03-25T13:29:38;1.50;;;0.90;;
8592;SDS011;4334;49.982;8.398;2023-03-25T13:32:11;2.80;;;1.77;;
8592;SDS011;4334;49.982;8.398;2023-03-25T13:34:44;4.23;;;1.60;;
8592;SDS011;4334;49.982;8.398;2023-03-25T13:37:20;2.55;;;1.00;;
8592;SDS011;4334;49.982;8.398;2023-03-25T13:39:55;2.63;;;1.13;;
8592;SDS011;4334;49.982;8.398;2023-03-25T13:42:40;3.57;;;1.30;;
8592;SDS011;4334;49.982;8.398;2023-03-25T13:45:14;2.23;;;0.97;;
8592;SDS011;4334;49.982;8.398;2023-03-25T13:47:43;2.83;;;1.50;;
8592;SDS011;4334;49.982;8.398;2023-03-25T13:50:17;3.73;;;1.30;;
8592;SDS011;4334;49.982;8.398;2023-03-25T13:52:54;2.87;;;1.30;;
8592;SDS011;4334;49.982;8.398;2023-03-25T13:55:28;4.47;;;1.30;;
8592;SDS011;4334;49.982;8.398;2023-03-25T13:58:11;3.07;;;1.20;;
8592;SDS011;4334;49.982;8.398;2023-03-25T14:03:57;3.40;;;1.40;;
8592;SDS011;4334;49.982;8.398;2023-03-25T14:06:50;2.83;;;1.13;;
8592;SDS011;4334;49.982;8.398;2023-03-25T14:09:43;2.83;;;1.20;;
8592;SDS011;4334;49.982;8.398;2023-03-25T14:12:39;3.73;;;1.40;;
8592;SDS011;4334;49.982;8.398;2023-03-25T14:15:12;2.53;;;1.27;;
8592;SDS011;4334;49.982;8.398;2023-03-25T14:17:44;2.53;;;1.10;;
8592;SDS011;4334;49.982;8.398;2023-03-25T14:20:17;2.63;;;1.10;;
8592;SDS011;4334;49.982;8.398;2023-03-25T14:22:53;5.33;;;1.63;;
8592;SDS011;4334;49.982;8.398;2023-03-25T14:25:27;6.23;;;1.30;;
8592;SDS011;4334;49.982;8.398;2023-03-25T14:27:59;2.47;;;1.10;;
8592;SDS011;4334;49.982;8.398;2023-03-25T14:30:28;4.17;;;1.47;;
8592;SDS011;4334;49.982;8.398;2023-03-25T14:32:56;3.10;;;1.30;;
8592;SDS011;4334;49.982;8.398;2023-03-25T14:35:46;2.97;;;1.30;;
8592;SDS011;4334;49.982;8.398;2023-03-25T14:38:17;2.10;;;1.23;;
8592;SDS011;4334;49.982;8.398;2023-03-25T14:41:02;1.85;;;1.02;;
8592;SDS011;4334;49.982;8.398;2023-03-25T14:43:35;2.37;;;1.10;;
8592;SDS011;4334;49.982;8.398;2023-03-25T14:46:05;1.70;;;1.13;;
8592;SDS011;4334;49.982;8.398;2023-03-25T14:48:42;2.63;;;1.13;;
8592;SDS011;4334;49.982;8.398;2023-03-25T14:56:58;4.30;;;1.30;;
8592;SDS011;4334;49.982;8.398;2023-03-25T14:59:31;3.80;;;1.30;;
8592;SDS011;4334;49.982;8.398;2023-03-25T15:02:02;3.80;;;1.40;;
8592;SDS011;4334;49.982;8.398;2023-03-25T15:04:35;4.17;;;1.17;;
8592;SDS011;4334;49.982;8.398;2023-03-25T15:07:09;2.90;;;1.30;;
8592;SDS011;4334;49.982;8.398;2023-03-25T15:09:45;2.93;;;1.20;;
8592;SDS011;4334;49.982;8.398;2023-03-25T15:12:20;3.63;;;1.33;;
8592;SDS011;4334;49.982;8.398;2023-03-25T15:14:55;3.17;;;1.30;;
8592;SDS011;4334;49.982;8.398;2023-03-25T15:17:40;3.40;;;1.60;;
8592;SDS011;4334;49.982;8.398;2023-03-25T15:20:11;2.83;;;1.37;;
8592;SDS011;4334;49.982;8.398;2023-03-25T15:25:55;4.80;;;1.60;;
8592;SDS011;4334;49.982;8.398;2023-03-25T15:28:29;3.23;;;1.43;;
8592;SDS011;4334;49.982;8.398;2023-03-25T15:31:27;3.13;;;1.43;;
8592;SDS011;4334;49.982;8.398;2023-03-25T15:34:08;3.87;;;1.33;;
8592;SDS011;4334;49.982;8.398;2023-03-25T15:37:08;3.57;;;1.40;;
8592;SDS011;4334;49.982;8.398;2023-03-25T15:39:55;3.07;;;1.63;;
8592;SDS011;4334;49.982;8.398;2023-03-25T15:42:36;3.80;;;1.20;;
8592;SDS011;4334;49.982;8.398;2023-03-25T15:48:26;4.23;;;1.80;;
8592;SDS011;4334;49.982;8.398;2023-03-25T15:51:18;3.17;;;1.23;;
8592;SDS011;4334;49.982;8.398;2023-03-25T15:54:16;4.20;;;1.10;;
8592;SDS011;4334;49.982;8.398;2023-03-25T15:56:59;2.00;;;1.20;;
8592;SDS011;4334;49.982;8.398;2023-03-25T15:59:37;4.97;;;1.57;;
8592;SDS011;4334;49.982;8.398;2023-03-25T16:02:12;3.47;;;1.20;;
8592;SDS011;4334;49.982;8.398;2023-03-25T16:04:47;2.67;;;1.20;;
8592;SDS011;4334;49.982;8.398;2023-03-25T16:07:18;3.80;;;1.50;;
8592;SDS011;4334;49.982;8.398;2023-03-25T16:09:53;3.57;;;1.17;;
8592;SDS011;4334;49.982;8.398;2023-03-25T16:12:22;3.17;;;1.17;;
8592;SDS011;4334;49.982;8.398;2023-03-25T16:14:51;4.80;;;1.30;;
8592;SDS011;4334;49.982;8.398;2023-03-25T16:17:23;5.17;;;1.07;;